Washington, DC (20212)

3:11 PM EST on January 26, 2015 (GMT -0500)
H Street Corridor - NoMa | Change Station
CLOSE
Current Station
Personal Weather Station
Location: Washington, DC
Elevation: 56 ft
Nearby Weather Stations
Active Advisory: Winter Weather Advisory Active Notice: Public Information Statement

Elev 56 ft 38.90 °N, 77.00 °W | Updated 5 seconds ago

Overcast
Overcast
32.7 °F
Feels Like 29 °F
N
4.0
Wind Variable Wind from North
Gusts 11.0 mph

Today
High -- | Low -- °F
--% Chance of Precip.
Yesterday
High -- | Low -- °F
Precip. -- in
7:19 AM 5:22 PM
Waxing Crescent, 46% visible
Pressure 29.72 in
Visibility 10.0 miles
Clouds Overcast 900 ft
Windchill 29 °F
Dew Point 30 °F
Humidity 90%
Rainfall 0.13 in
Snow Depth Not available.
UV 1 out of 12
Pollen .30 out of 12
Air Quality Not available.
Flu Activity Not available.
METAR KDCA 261952Z 02010KT 10SM -RA OVC009 01/M02 A2972 RMK AO2 SLP063 RAB00 P0000 T00111017

More Conditions Fewer Conditions

Pressure 29.72 in
Visibility 10.0 miles
Clouds Overcast 900 ft
Windchill 29 °F
Dew Point 30 °F
Humidity 90%
Rainfall 0.13 in
Snow Depth Not available.
UV 1 out of 12
Pollen .30 out of 12
Air Quality Not available.
Flu Activity Not available.
METAR KDCA 261952Z 02010KT 10SM -RA OVC009 01/M02 A2972 RMK AO2 SLP063 RAB00 P0000 T00111017

More Conditions Fewer Conditions

10-Day Weather Forecast

Almanac

Astronomy

Jan. 26, 2015 Rise Set
Actual Time
Civil Twilight
Nautical Twilight
Astronomical Twilight
Moon
Length of Visible Light
Length of Day
Tomorrow will be .
, % of the Moon is Illuminated

Today's Extremes

State Highs State Lows

Community

WunderPhotos

Upload Photos

1,790,347 photos uploaded!

WunderBlogs® & News

Nearby

Air Quality

  Air Quality AQ Index Pollutant
Not available.

Snow Depth

Station Depth Elevation

Earthquake Activity

City Distance Mag. Time & Date
Minimum magnitude displayed is 2.5.

Coastal Water Temperatures

Place Temperature

Nearby Weather Stations